In Rescue
 
Open Full Screen Window  High Contrast Mode
Wind Gusting 00 knots
03
March 04, 2021 4:53 AM EST
Weather Information
Wind Direction
  330 °
Wind Speed
  03 kt (3 mph)
Wind Gust
  00 kt (0 mph)
Altimeter
30.15 in
Visibility
10 SM
Temperature
-01° C
30° F
Dewpoint
-03° C
27° F
Humidity
86%
1hr Rain Fall
00.00 in.
24hr Rain Fall
00.00 in.
Sky Condition
Clear
VFR

METAR KIRS 040953Z AUTO 33003KT 10SM CLR M01/M03 A3015 RMK AO2 T10121028

FAA Disclaimer: The data displayed is for advisory purposes only and is not to be used for flight planning or operations.